Time;durP1;ratioP1;P1;durP2;ratioP2;P2;SDS_P1;SDS_P2;PMS_P1;PMS_P2;Temp;Humidity;BMP_temperature;BMP_pressure;BME280_temperature;BME280_humidity;BME280_pressure;Samples;Min_cycle;Max_cycle;Signal;HPM_P1;HPM_P2
2022/09/13 00:00:51;;;;;;;1.42;1.20;;;17.90;79.40;;;;;;5112636;28;20073;-77
2022/09/13 00:03:17;;;;;;;0.95;0.90;;;18.00;79.60;;;;;;5112697;28;20050;-77
2022/09/13 00:05:43;;;;;;;1.25;1.00;;;18.10;79.60;;;;;;5093829;28;20130;-78
2022/09/13 00:08:09;;;;;;;0.88;0.88;;;18.00;79.60;;;;;;5112175;28;20088;-77
2022/09/13 00:10:37;;;;;;;1.17;0.98;;;18.00;79.70;;;;;;5093776;28;20082;-77
2022/09/13 00:13:04;;;;;;;1.05;0.95;;;17.90;79.60;;;;;;5093893;28;20035;-78
2022/09/13 00:15:30;;;;;;;1.10;1.00;;;18.00;79.70;;;;;;5112159;28;20497;-77
2022/09/13 00:17:56;;;;;;;1.38;1.10;;;18.00;79.70;;;;;;5094704;28;20044;-77
2022/09/13 00:20:22;;;;;;;1.83;1.20;;;18.00;79.80;;;;;;5093674;28;20089;-77
2022/09/13 00:22:48;;;;;;;1.60;1.10;;;17.90;79.70;;;;;;5111762;28;20104;-77
2022/09/13 00:25:13;;;;;;;1.02;0.90;;;17.90;79.80;;;;;;5034387;28;20487;-77
2022/09/13 00:27:39;;;;;;;1.10;1.00;;;17.90;79.80;;;;;;5069108;28;20051;-77
2022/09/13 00:30:07;;;;;;;1.05;0.98;;;17.90;79.80;;;;;;5036276;28;20106;-77
2022/09/13 00:32:34;;;;;;;1.20;0.90;;;17.90;79.80;;;;;;5069113;28;20059;-77
2022/09/13 00:35:02;;;;;;;0.95;0.90;;;17.90;79.80;;;;;;5069267;28;20513;-77
2022/09/13 00:37:27;;;;;;;1.08;0.90;;;17.90;79.90;;;;;;5067794;28;20102;-77
2022/09/13 00:39:53;;;;;;;1.10;1.00;;;17.90;79.90;;;;;;5068887;28;20040;-77
2022/09/13 00:42:25;;;;;;;1.27;1.15;;;17.90;79.90;;;;;;5070002;28;20047;-77
2022/09/13 00:44:56;;;;;;;0.93;0.90;;;17.90;80.00;;;;;;5055561;28;20111;-78
2022/09/13 00:47:30;;;;;;;1.42;1.15;;;17.90;80.00;;;;;;5055994;28;20057;-77
2022/09/13 00:50:07;;;;;;;0.98;0.80;;;17.90;80.00;;;;;;5072990;28;20047;-77
2022/09/13 00:52:33;;;;;;;1.17;0.88;;;17.90;80.00;;;;;;5055532;28;20227;-77
2022/09/13 00:55:05;;;;;;;1.00;0.90;;;17.90;80.00;;;;;;5072951;28;20055;-77
2022/09/13 00:57:34;;;;;;;1.15;1.00;;;17.90;80.10;;;;;;5097048;28;20039;-77
2022/09/13 01:00:12;;;;;;;1.60;1.02;;;17.90;80.10;;;;;;5095004;28;20043;-77
2022/09/13 01:02:42;;;;;;;1.20;1.08;;;17.90;80.20;;;;;;5115075;28;20123;-77
2022/09/13 01:05:09;;;;;;;1.20;1.10;;;17.90;80.10;;;;;;5097170;28;20569;-77
2022/09/13 01:07:36;;;;;;;1.05;0.95;;;17.90;80.20;;;;;;5097518;28;20367;-77
2022/09/13 01:10:05;;;;;;;1.77;1.10;;;17.90;80.20;;;;;;5096690;28;20119;-77
2022/09/13 01:12:54;;;;;;;0.95;0.88;;;17.90;80.20;;;;;;5096553;28;20032;-77
2022/09/13 01:15:20;;;;;;;0.90;0.85;;;17.90;80.30;;;;;;5114248;28;20039;-77
2022/09/13 01:17:48;;;;;;;1.17;1.00;;;18.00;80.30;;;;;;5114602;28;20123;-77
2022/09/13 01:20:14;;;;;;;1.08;0.98;;;17.90;80.30;;;;;;5079642;28;20042;-77
2022/09/13 01:23:10;;;;;;;0.90;0.90;;;17.90;80.30;;;;;;5114648;28;20067;-77
2022/09/13 01:26:08;;;;;;;1.10;1.00;;;18.00;80.40;;;;;;5101066;28;20065;-77
2022/09/13 01:29:02;;;;;;;0.88;0.80;;;18.00;80.30;;;;;;5113044;28;20071;-77
2022/09/13 01:31:48;;;;;;;1.20;1.10;;;18.00;80.30;;;;;;5099144;28;20044;-77
2022/09/13 01:34:36;;;;;;;1.23;1.00;;;17.90;80.30;;;;;;5114441;28;20050;-78
2022/09/13 01:37:42;;;;;;;1.00;0.90;;;17.90;80.40;;;;;;5112696;28;20036;-77
2022/09/13 01:40:23;;;;;;;0.95;0.88;;;17.90;80.40;;;;;;5114325;28;20477;-77
2022/09/13 01:43:15;;;;;;;0.80;0.80;;;18.00;80.50;;;;;;5112651;28;20036;-78
2022/09/13 01:46:03;;;;;;;1.05;0.90;;;17.90;80.60;;;;;;5095139;28;20035;-77
2022/09/13 01:48:53;;;;;;;1.08;0.98;;;17.90;80.60;;;;;;5113705;28;20055;-77
2022/09/13 01:51:27;;;;;;;1.20;1.10;;;17.90;80.70;;;;;;5114365;28;20499;-77
2022/09/13 01:54:08;;;;;;;1.15;1.05;;;17.90;80.60;;;;;;5113850;28;20047;-77
2022/09/13 01:56:41;;;;;;;0.80;0.80;;;17.90;80.70;;;;;;5114675;28;20031;-77
2022/09/13 01:59:26;;;;;;;1.35;1.00;;;17.90;80.70;;;;;;5112512;28;20113;-78
2022/09/13 02:02:00;;;;;;;0.80;0.80;;;17.90;80.80;;;;;;5114444;28;20043;-77
2022/09/13 02:04:34;;;;;;;1.00;0.90;;;17.90;81.40;;;;;;5112667;28;20481;-77
2022/09/13 02:07:13;;;;;;;0.90;0.90;;;17.90;80.80;;;;;;5095687;28;20039;-77
2022/09/13 02:09:44;;;;;;;0.88;0.85;;;17.90;80.90;;;;;;5114060;28;20140;-77
2022/09/13 02:12:17;;;;;;;1.00;0.90;;;17.90;80.90;;;;;;5112322;28;20044;-77
2022/09/13 02:14:46;;;;;;;0.73;0.73;;;17.90;80.90;;;;;;5113860;28;20477;-77
2022/09/13 02:17:17;;;;;;;1.10;1.00;;;17.90;80.90;;;;;;5096134;28;20092;-77
2022/09/13 02:20:02;;;;;;;0.85;0.85;;;17.90;81.00;;;;;;5113966;28;20039;-77
2022/09/13 02:22:32;;;;;;;1.13;0.90;;;17.90;81.00;;;;;;5077358;28;20459;-77
2022/09/13 02:25:06;;;;;;;1.20;1.10;;;17.90;81.00;;;;;;5114138;28;20127;-77
2022/09/13 02:27:35;;;;;;;0.95;0.90;;;17.90;81.00;;;;;;5113990;28;20057;-77
2022/09/13 02:30:06;;;;;;;1.30;1.10;;;17.90;81.00;;;;;;5113676;28;20393;-78
2022/09/13 02:32:49;;;;;;;1.13;0.95;;;17.90;81.00;;;;;;5095357;28;20039;-77
2022/09/13 02:35:21;;;;;;;1.10;0.90;;;17.90;81.00;;;;;;5113642;28;20066;-78
2022/09/13 02:37:56;;;;;;;1.33;1.00;;;17.80;81.00;;;;;;5096506;28;20042;-77
2022/09/13 02:40:33;;;;;;;0.90;0.90;;;17.90;81.10;;;;;;5096296;28;20104;-77
2022/09/13 02:43:09;;;;;;;0.80;0.80;;;17.90;81.10;;;;;;5094136;28;20409;-77
2022/09/13 02:45:46;;;;;;;0.70;0.70;;;17.90;81.10;;;;;;5096576;28;20052;-77
2022/09/13 02:48:28;;;;;;;1.08;1.00;;;17.90;81.20;;;;;;5112356;28;20432;-77
2022/09/13 02:51:05;;;;;;;1.05;0.93;;;17.90;81.20;;;;;;5095253;28;20052;-77
2022/09/13 02:53:47;;;;;;;1.63;1.10;;;17.90;81.10;;;;;;5096276;28;20040;-77
2022/09/13 02:56:29;;;;;;;1.23;1.10;;;17.90;81.10;;;;;;5113381;28;20032;-78
2022/09/13 02:59:15;;;;;;;1.27;1.10;;;17.90;81.10;;;;;;5113517;28;20122;-77
2022/09/13 03:01:47;;;;;;;1.10;0.95;;;17.90;81.10;;;;;;5094867;28;20157;-77
2022/09/13 03:04:14;;;;;;;1.95;1.30;;;18.00;81.00;;;;;;5111224;28;20047;-77
2022/09/13 03:06:41;;;;;;;1.40;1.13;;;18.00;81.00;;;;;;5112685;28;20043;-77
2022/09/13 03:09:08;;;;;;;1.33;1.20;;;18.00;81.00;;;;;;5112990;28;20056;-77
2022/09/13 03:12:10;;;;;;;1.10;0.98;;;17.90;81.00;;;;;;5113143;28;20067;-77
2022/09/13 03:14:55;;;;;;;1.73;1.10;;;17.90;81.10;;;;;;5113488;28;20036;-77
2022/09/13 03:17:41;;;;;;;1.20;0.80;;;17.80;81.10;;;;;;5112474;28;20042;-77
2022/09/13 03:20:13;;;;;;;1.15;1.00;;;17.80;81.20;;;;;;5093892;28;20472;-78
2022/09/13 03:22:59;;;;;;;1.05;0.95;;;17.70;81.20;;;;;;5112940;28;20122;-77
2022/09/13 03:25:42;;;;;;;1.20;1.00;;;17.90;81.30;;;;;;5094551;28;20039;-77
2022/09/13 03:28:29;;;;;;;0.90;0.90;;;17.90;81.20;;;;;;5112020;28;20443;-77
2022/09/13 03:31:09;;;;;;;0.80;0.80;;;17.90;81.20;;;;;;5094417;28;20394;-77
2022/09/13 03:33:45;;;;;;;1.02;0.93;;;17.90;81.20;;;;;;5096065;28;20151;-77
2022/09/13 03:36:20;;;;;;;1.00;0.90;;;17.80;81.20;;;;;;5095202;28;20374;-77
2022/09/13 03:39:14;;;;;;;1.02;0.93;;;17.90;81.30;;;;;;5111290;28;20493;-77
2022/09/13 03:41:45;;;;;;;1.38;1.02;;;17.90;81.30;;;;;;5112646;28;20044;-77
2022/09/13 03:44:14;;;;;;;1.58;1.00;;;17.80;81.30;;;;;;5094486;28;20044;-78
2022/09/13 03:46:44;;;;;;;1.20;1.10;;;17.90;81.30;;;;;;5112571;28;20054;-77
2022/09/13 03:49:15;;;;;;;1.00;0.90;;;17.80;81.30;;;;;;5094369;28;20134;-77
2022/09/13 03:51:43;;;;;;;;;;;17.90;81.40;;;;;;5112871;28;20044;-77
2022/09/13 03:54:15;;;;;;;0.98;0.90;;;17.90;81.30;;;;;;5112296;28;19923;-78
2022/09/13 03:56:41;;;;;;;1.00;0.90;;;17.90;81.30;;;;;;5077193;28;20393;-77
2022/09/13 03:59:07;;;;;;;1.33;1.05;;;17.80;81.30;;;;;;5060770;28;20031;-77
2022/09/13 04:01:33;;;;;;;1.00;0.90;;;17.70;81.40;;;;;;5060750;28;20032;-76
2022/09/13 04:03:59;;;;;;;1.35;1.05;;;17.80;81.40;;;;;;5112505;28;20039;-76
2022/09/13 04:06:25;;;;;;;1.35;1.02;;;17.80;81.40;;;;;;5094387;28;20511;-77
2022/09/13 04:08:50;;;;;;;1.35;1.00;;;17.70;81.40;;;;;;5077336;28;20134;-76
2022/09/13 04:11:16;;;;;;;0.95;0.90;;;17.70;81.40;;;;;;5094187;28;20160;-76
2022/09/13 04:13:42;;;;;;;1.92;1.00;;;17.80;81.50;;;;;;5112359;28;20100;-76
2022/09/13 04:16:09;;;;;;;1.70;1.30;;;17.80;81.60;;;;;;5113179;28;20031;-76
2022/09/13 04:18:35;;;;;;;1.50;1.25;;;17.80;81.70;;;;;;5096059;28;20547;-76
2022/09/13 04:21:01;;;;;;;1.70;1.40;;;17.80;81.70;;;;;;5097738;28;20043;-75
2022/09/13 04:23:28;;;;;;;1.67;1.20;;;17.70;81.60;;;;;;5115966;28;20404;-76
2022/09/13 04:25:59;;;;;;;1.33;1.23;;;17.80;81.70;;;;;;5098098;28;20392;-76
2022/09/13 04:28:25;;;;;;;1.10;1.00;;;17.80;81.60;;;;;;5097672;28;20409;-76
2022/09/13 04:30:51;;;;;;;1.40;1.13;;;17.80;81.60;;;;;;5115819;28;20036;-76
2022/09/13 04:33:17;;;;;;;1.63;1.20;;;17.80;81.60;;;;;;5097551;28;20043;-76
2022/09/13 04:35:43;;;;;;;1.08;0.90;;;17.90;81.60;;;;;;5115871;28;20066;-76
2022/09/13 04:38:08;;;;;;;1.35;1.23;;;17.80;81.60;;;;;;5116026;28;20031;-76
2022/09/13 04:40:36;;;;;;;1.20;1.05;;;17.80;81.70;;;;;;5097632;28;20032;-76
2022/09/13 04:43:02;;;;;;;1.17;1.00;;;17.70;81.70;;;;;;5097957;28;20059;-76
2022/09/13 04:45:28;;;;;;;1.40;1.08;;;17.70;81.70;;;;;;5116300;28;20092;-76
2022/09/13 04:47:55;;;;;;;1.27;1.08;;;17.70;81.70;;;;;;5097822;28;20043;-76
2022/09/13 04:50:22;;;;;;;0.95;0.95;;;17.70;81.80;;;;;;5097848;28;20066;-76
2022/09/13 04:52:48;;;;;;;1.45;1.00;;;17.70;81.90;;;;;;5116291;28;20097;-76
2022/09/13 04:55:14;;;;;;;1.20;1.00;;;17.70;81.90;;;;;;5097456;28;20039;-76
2022/09/13 04:57:40;;;;;;;1.35;1.20;;;17.70;81.90;;;;;;5116139;28;20488;-77
2022/09/13 05:00:07;;;;;;;1.08;0.98;;;17.70;82.00;;;;;;5080521;28;20489;-78
2022/09/13 05:02:33;;;;;;;2.25;1.20;;;17.70;82.00;;;;;;5115577;28;20052;-76
2022/09/13 05:04:59;;;;;;;1.90;1.13;;;17.70;82.00;;;;;;5097648;28;20042;-77
2022/09/13 05:07:25;;;;;;;1.30;1.13;;;17.80;82.00;;;;;;5097195;28;20050;-76
2022/09/13 05:09:50;;;;;;;1.55;1.17;;;17.70;81.90;;;;;;5115320;28;20367;-76
2022/09/13 05:12:16;;;;;;;1.30;1.20;;;17.80;81.90;;;;;;5115346;28;20043;-78
2022/09/13 05:14:42;;;;;;;1.40;1.25;;;17.70;81.80;;;;;;5097771;28;20050;-78
2022/09/13 05:17:08;;;;;;;1.38;1.23;;;17.80;81.80;;;;;;5115803;28;20047;-77
2022/09/13 05:19:34;;;;;;;1.60;1.20;;;17.80;81.80;;;;;;5116037;28;20493;-73
2022/09/13 05:22:00;;;;;;;1.85;1.10;;;17.80;81.70;;;;;;5115256;28;20047;-75
2022/09/13 05:24:26;;;;;;;1.65;1.17;;;17.90;81.80;;;;;;5113988;28;20043;-76
2022/09/13 05:26:52;;;;;;;1.13;1.02;;;17.80;81.70;;;;;;5096636;28;20066;-77
2022/09/13 05:29:18;;;;;;;1.20;1.10;;;17.80;81.70;;;;;;5095989;28;20050;-77
2022/09/13 05:31:44;;;;;;;1.48;1.20;;;17.80;81.70;;;;;;5096898;28;20044;-77
2022/09/13 05:34:13;;;;;;;1.17;1.00;;;17.90;81.80;;;;;;5115212;28;20031;-78
2022/09/13 05:36:39;;;;;;;1.25;1.02;;;17.90;81.80;;;;;;5115175;28;20035;-77
2022/09/13 05:39:06;;;;;;;1.85;1.30;;;17.80;81.70;;;;;;5096488;28;20051;-77
2022/09/13 05:41:33;;;;;;;1.92;1.42;;;17.90;81.90;;;;;;5114919;28;20035;-77
2022/09/13 05:43:58;;;;;;;1.38;1.25;;;17.90;81.90;;;;;;5096438;28;20050;-77
2022/09/13 05:46:24;;;;;;;1.55;1.10;;;17.90;81.90;;;;;;5115085;28;20043;-78
2022/09/13 05:48:50;;;;;;;1.02;0.88;;;17.90;81.90;;;;;;5115192;28;20040;-77
2022/09/13 05:51:18;;;;;;;1.17;0.98;;;17.80;81.80;;;;;;5114755;28;20079;-76
2022/09/13 05:53:47;;;;;;;1.30;1.10;;;17.90;81.90;;;;;;5114946;28;20044;-77
2022/09/13 05:56:15;;;;;;;1.20;1.05;;;17.90;81.90;;;;;;5096304;28;20040;-77
2022/09/13 05:58:43;;;;;;;1.35;1.10;;;17.90;81.90;;;;;;5079789;28;20493;-77
2022/09/13 06:01:10;;;;;;;1.50;1.20;;;17.90;81.80;;;;;;5115177;28;20490;-77
2022/09/13 06:03:36;;;;;;;1.23;1.00;;;18.00;81.90;;;;;;5096382;28;20051;-77
2022/09/13 06:06:03;;;;;;;0.98;0.93;;;18.00;81.90;;;;;;5114813;28;20051;-75
2022/09/13 06:08:30;;;;;;;1.38;1.13;;;18.00;81.90;;;;;;5114809;28;20044;-76
2022/09/13 06:11:00;;;;;;;1.13;1.02;;;18.00;81.80;;;;;;5095941;28;20051;-75
2022/09/13 06:13:27;;;;;;;1.23;1.00;;;18.10;81.80;;;;;;5095934;28;20070;-76
2022/09/13 06:15:58;;;;;;;0.90;0.90;;;18.10;81.80;;;;;;5114777;28;20035;-75
2022/09/13 06:18:25;;;;;;;1.30;1.08;;;18.20;81.80;;;;;;5097216;28;20028;-75
2022/09/13 06:20:57;;;;;;;1.45;1.08;;;18.10;81.70;;;;;;5113974;28;20031;-76
2022/09/13 06:23:23;;;;;;;1.10;1.00;;;18.20;81.70;;;;;;5113765;28;20058;-75
2022/09/13 06:25:48;;;;;;;1.38;1.10;;;18.20;81.60;;;;;;5095926;28;20048;-75
2022/09/13 06:28:14;;;;;;;1.08;0.98;;;18.20;81.50;;;;;;5114152;28;20063;-75
2022/09/13 06:30:40;;;;;;;1.23;1.00;;;18.30;81.60;;;;;;5113867;28;20081;-76
2022/09/13 06:33:06;;;;;;;1.75;1.23;;;18.40;81.60;;;;;;5114710;28;20040;-76
2022/09/13 06:35:31;;;;;;;1.33;1.13;;;18.40;81.50;;;;;;5095742;28;20047;-78
2022/09/13 06:37:57;;;;;;;1.10;0.80;;;18.40;81.50;;;;;;5096628;28;20043;-76
2022/09/13 06:40:24;;;;;;;1.58;1.30;;;18.40;81.50;;;;;;5113035;28;20032;-77
2022/09/13 06:42:50;;;;;;;1.15;1.00;;;18.50;81.50;;;;;;5114108;28;20054;-77
2022/09/13 06:45:17;;;;;;;1.30;1.00;;;18.50;81.50;;;;;;5114392;28;20036;-77
2022/09/13 06:47:43;;;;;;;1.10;1.00;;;18.60;81.50;;;;;;5114245;28;20126;-77
2022/09/13 06:50:09;;;;;;;3.55;1.48;;;18.60;81.40;;;;;;5095579;28;20108;-77
2022/09/13 06:52:35;;;;;;;3.67;1.60;;;18.60;81.30;;;;;;5078632;28;20489;-77
2022/09/13 06:55:01;;;;;;;1.45;1.30;;;18.60;81.30;;;;;;5113723;28;20031;-77
2022/09/13 06:57:29;;;;;;;1.45;1.23;;;18.70;81.30;;;;;;5114046;28;20051;-77
2022/09/13 06:59:55;;;;;;;1.40;1.20;;;18.80;81.30;;;;;;5114252;28;20085;-77
2022/09/13 07:02:21;;;;;;;1.77;1.27;;;18.80;81.10;;;;;;5078719;28;20063;-77
2022/09/13 07:04:46;;;;;;;3.00;1.45;;;18.90;81.10;;;;;;5113522;28;20086;-77
2022/09/13 07:07:12;;;;;;;1.50;1.30;;;18.80;81.00;;;;;;5113122;28;20070;-77
2022/09/13 07:09:38;;;;;;;1.50;1.20;;;18.90;81.00;;;;;;5113554;28;20035;-77
2022/09/13 07:12:06;;;;;;;2.58;1.40;;;19.00;81.10;;;;;;5113345;28;20047;-77
2022/09/13 07:14:31;;;;;;;2.22;1.45;;;19.10;81.00;;;;;;5095093;28;20138;-77
2022/09/13 07:16:59;;;;;;;1.58;1.27;;;19.10;81.00;;;;;;5095238;28;20063;-77
2022/09/13 07:19:26;;;;;;;1.60;1.30;;;19.10;80.90;;;;;;5113083;28;20057;-78
2022/09/13 07:21:53;;;;;;;1.63;1.20;;;19.20;80.80;;;;;;5095060;28;20028;-77
2022/09/13 07:24:19;;;;;;;1.55;1.30;;;19.30;80.80;;;;;;5113399;28;20052;-78
2022/09/13 07:26:46;;;;;;;2.13;1.65;;;19.30;80.70;;;;;;5113724;28;20040;-78
2022/09/13 07:29:15;;;;;;;1.50;1.20;;;19.40;80.60;;;;;;5095084;28;20496;-76
2022/09/13 07:31:43;;;;;;;2.08;1.60;;;19.50;80.60;;;;;;5078658;28;20039;-76
2022/09/13 07:34:14;;;;;;;1.58;1.35;;;19.50;80.50;;;;;;5111371;28;20074;-76
2022/09/13 07:36:40;;;;;;;;;;;19.50;80.40;;;;;;5093308;28;20058;-76
2022/09/13 07:39:06;;;;;;;2.67;1.67;;;19.50;80.40;;;;;;5112840;28;20404;-76
2022/09/13 07:41:33;;;;;;;1.70;1.40;;;19.50;80.40;;;;;;5113282;28;20062;-76
2022/09/13 07:44:00;;;;;;;1.52;1.30;;;19.60;80.50;;;;;;5077707;28;20150;-76
2022/09/13 07:46:30;;;;;;;2.30;1.70;;;19.60;80.50;;;;;;5113078;28;20067;-76
2022/09/13 07:48:57;;;;;;;2.42;1.50;;;19.60;80.40;;;;;;5095417;28;20047;-77
2022/09/13 07:51:30;;;;;;;2.03;1.45;;;19.70;80.50;;;;;;5112363;28;20040;-77
2022/09/13 07:53:58;;;;;;;2.90;1.95;;;19.70;80.50;;;;;;5094700;28;20035;-76
2022/09/13 07:56:30;;;;;;;2.85;1.70;;;19.80;80.50;;;;;;5112909;28;20123;-77
2022/09/13 07:58:59;;;;;;;2.13;1.52;;;19.90;80.50;;;;;;5094432;28;20071;-76
2022/09/13 08:01:27;;;;;;;2.88;1.92;;;19.90;80.40;;;;;;5112773;28;20032;-77
2022/09/13 08:03:58;;;;;;;4.18;1.80;;;20.00;80.20;;;;;;5094574;28;20082;-77
2022/09/13 08:06:26;;;;;;;3.70;2.17;;;20.10;80.00;;;;;;5112578;28;20047;-77
2022/09/13 08:08:52;;;;;;;2.92;1.85;;;20.20;79.80;;;;;;5094468;28;20043;-76
2022/09/13 08:11:22;;;;;;;2.38;1.80;;;20.40;79.70;;;;;;5094694;28;20073;-77
2022/09/13 08:13:49;;;;;;;2.28;1.58;;;20.50;79.50;;;;;;5093198;28;20051;-76
2022/09/13 08:16:18;;;;;;;1.88;1.38;;;20.60;79.30;;;;;;5110634;28;20043;-76
2022/09/13 08:18:46;;;;;;;3.28;1.98;;;20.80;79.20;;;;;;5113119;28;20062;-76
2022/09/13 08:21:13;;;;;;;1.98;1.40;;;20.80;78.90;;;;;;5095066;28;20123;-77
2022/09/13 08:23:39;;;;;;;1.73;1.30;;;21.00;78.80;;;;;;5094312;28;20045;-76
2022/09/13 08:26:06;;;;;;;2.55;1.58;;;21.10;78.60;;;;;;5112338;28;20039;-76
2022/09/13 08:28:34;;;;;;;1.23;1.00;;;21.20;78.60;;;;;;5094095;28;20043;-76
2022/09/13 08:31:10;;;;;;;1.98;1.40;;;21.30;78.50;;;;;;5112235;28;20039;-76
2022/09/13 08:33:36;;;;;;;1.58;1.40;;;21.40;78.40;;;;;;5111168;28;20062;-76
2022/09/13 08:36:04;;;;;;;1.65;1.38;;;21.40;78.20;;;;;;5093954;28;20088;-75
2022/09/13 08:38:31;;;;;;;2.00;1.50;;;21.50;78.20;;;;;;5077343;28;20048;-76
2022/09/13 08:41:04;;;;;;;2.80;1.60;;;21.50;78.20;;;;;;5093978;28;20062;-76
2022/09/13 08:43:49;;;;;;;1.52;1.10;;;21.60;78.20;;;;;;5094149;28;20036;-75
2022/09/13 08:46:27;;;;;;;1.80;1.17;;;21.60;78.30;;;;;;5112375;28;20047;-75
2022/09/13 08:48:57;;;;;;;1.90;1.20;;;21.70;78.40;;;;;;5112177;28;20560;-76
2022/09/13 08:51:30;;;;;;;1.08;0.98;;;21.80;78.40;;;;;;5112109;28;20028;-76
2022/09/13 08:53:56;;;;;;;2.53;1.50;;;21.80;78.30;;;;;;5094703;28;20040;-76
2022/09/13 08:56:39;;;;;;;1.35;1.10;;;21.80;78.10;;;;;;5094389;28;20032;-76
2022/09/13 08:59:32;;;;;;;1.77;1.00;;;21.90;78.10;;;;;;5093863;28;20044;-76
2022/09/13 09:02:16;;;;;;;1.30;1.10;;;21.80;78.30;;;;;;5080751;28;20154;-76
2022/09/13 09:04:57;;;;;;;1.67;1.35;;;21.90;78.50;;;;;;5115062;28;20039;-77
2022/09/13 09:07:25;;;;;;;;;;;21.90;78.60;;;;;;5096197;28;20374;-76
2022/09/13 09:09:56;;;;;;;1.98;1.23;;;21.90;78.50;;;;;;5113654;28;19988;-76
2022/09/13 09:12:44;;;;;;;1.20;1.10;;;21.90;78.40;;;;;;5097056;28;20040;-76
2022/09/13 09:15:22;;;;;;;1.73;1.13;;;21.90;78.60;;;;;;5115120;28;20048;-76
2022/09/13 09:17:56;;;;;;;2.58;1.50;;;21.90;78.80;;;;;;5081304;28;20043;-76
2022/09/13 09:20:45;;;;;;;1.67;1.10;;;22.00;78.90;;;;;;5095620;28;20131;-76
2022/09/13 09:23:16;;;;;;;1.50;1.33;;;21.90;78.90;;;;;;5086175;28;20079;-76
2022/09/13 09:25:42;;;;;;;1.77;1.40;;;22.00;79.00;;;;;;5115091;28;20047;-77
2022/09/13 09:28:13;;;;;;;2.05;1.73;;;22.00;79.00;;;;;;5096969;28;20100;-77
2022/09/13 09:30:53;;;;;;;2.97;1.80;;;21.90;79.00;;;;;;5095596;28;20047;-77
2022/09/13 09:33:48;;;;;;;1.48;1.30;;;22.00;79.00;;;;;;5115363;28;20037;-77
2022/09/13 09:36:31;;;;;;;1.40;1.20;;;22.00;78.90;;;;;;5113706;28;20115;-77
2022/09/13 09:38:56;;;;;;;1.63;1.30;;;22.00;79.00;;;;;;5114900;28;20073;-76
2022/09/13 09:41:31;;;;;;;1.33;1.23;;;22.00;79.20;;;;;;5096712;28;20036;-77
2022/09/13 09:44:15;;;;;;;1.70;1.40;;;22.00;79.20;;;;;;5113327;28;20063;-76
2022/09/13 09:46:43;;;;;;;1.27;1.10;;;21.90;79.20;;;;;;5098803;28;20085;-76
2022/09/13 09:52:05;;;;;;;1.15;1.05;;;21.90;79.50;;;;;;5099083;28;20096;-76
2022/09/13 09:54:33;;;;;;;0.90;0.90;;;21.90;79.60;;;;;;5096789;28;20346;-76
2022/09/13 09:57:00;;;;;;;0.90;0.80;;;21.90;79.60;;;;;;5114927;28;20318;-76
2022/09/13 09:59:32;;;;;;;1.45;1.00;;;21.80;79.70;;;;;;5114693;28;20036;-76
2022/09/13 10:02:13;;;;;;;2.03;1.02;;;21.90;79.80;;;;;;5114642;28;20099;-76
2022/09/13 10:04:39;;;;;;;1.30;0.93;;;21.90;79.60;;;;;;5114493;28;20043;-76
2022/09/13 10:07:29;;;;;;;1.38;0.80;;;22.00;79.40;;;;;;5114533;28;20177;-76
2022/09/13 10:10:07;;;;;;;1.75;1.30;;;22.10;79.30;;;;;;5112502;28;20040;-76
2022/09/13 10:12:36;;;;;;;1.60;1.20;;;22.20;79.20;;;;;;5113968;28;20036;-76
2022/09/13 10:15:21;;;;;;;1.25;1.00;;;22.20;78.90;;;;;;5114468;28;20115;-77
2022/09/13 10:18:02;;;;;;;0.70;0.70;;;22.30;78.70;;;;;;5095764;28;20413;-76
2022/09/13 10:20:28;;;;;;;;;;;22.30;78.70;;;;;;5115313;28;20043;-76
2022/09/13 10:23:15;;;;;;;0.70;0.70;;;22.40;78.60;;;;;;5114272;28;20259;-76
2022/09/13 10:25:45;;;;;;;0.63;0.63;;;22.40;78.40;;;;;;5096981;28;20035;-76
2022/09/13 10:28:15;;;;;;;0.80;0.80;;;22.60;78.30;;;;;;5114366;28;20028;-76
2022/09/13 10:30:45;;;;;;;;;;;22.60;78.10;;;;;;5114814;28;20046;-77
2022/09/13 10:33:31;;;;;;;0.60;0.60;;;22.70;78.00;;;;;;5113907;28;19915;-77
2022/09/13 10:36:00;;;;;;;0.85;0.63;;;22.60;77.90;;;;;;5113906;28;20055;-77
2022/09/13 10:38:31;;;;;;;0.60;0.60;;;22.60;77.90;;;;;;5114063;28;20035;-76
2022/09/13 10:40:58;;;;;;;0.90;0.77;;;22.60;78.00;;;;;;5114310;28;20116;-76
2022/09/13 10:43:27;;;;;;;0.70;0.70;;;22.50;78.10;;;;;;5113871;28;20048;-76
2022/09/13 10:45:54;;;;;;;0.57;0.57;;;22.50;78.30;;;;;;5096210;28;20126;-76
2022/09/13 10:48:20;;;;;;;0.82;0.63;;;22.50;78.40;;;;;;5113916;28;20052;-76
2022/09/13 10:51:16;;;;;;;1.13;0.65;;;22.60;78.40;;;;;;5113827;28;20071;-76
2022/09/13 10:53:42;;;;;;;1.33;0.70;;;22.60;78.20;;;;;;5113167;28;20036;-77
2022/09/13 10:56:21;;;;;;;0.55;0.55;;;22.70;78.10;;;;;;5113604;28;20042;-76
2022/09/13 10:58:47;;;;;;;0.70;0.70;;;22.80;77.90;;;;;;5113385;28;20040;-76
2022/09/13 11:01:31;;;;;;;1.30;1.00;;;22.90;77.80;;;;;;5113371;28;20088;-76
2022/09/13 11:04:18;;;;;;;0.73;0.73;;;22.90;77.60;;;;;;5095014;28;20485;-76
2022/09/13 11:06:55;;;;;;;0.52;0.52;;;23.00;77.40;;;;;;5114038;28;20481;-77
2022/09/13 11:09:32;;;;;;;0.60;0.60;;;23.10;77.10;;;;;;5096046;28;20122;-76
2022/09/13 11:12:19;;;;;;;0.60;0.60;;;23.10;76.90;;;;;;5095002;28;20047;-76
2022/09/13 11:15:11;;;;;;;0.90;0.75;;;23.10;76.90;;;;;;5113160;28;20063;-76
2022/09/13 11:18:16;;;;;;;0.63;0.50;;;23.20;76.80;;;;;;5113950;28;20465;-76
2022/09/13 11:21:09;;;;;;;0.57;0.45;;;23.30;76.60;;;;;;5098531;28;20044;-76
2022/09/13 11:23:50;;;;;;;0.50;0.40;;;23.40;76.40;;;;;;5111669;28;20544;-76
2022/09/13 11:26:30;;;;;;;;;;;23.50;76.40;;;;;;5094806;28;20078;-76
2022/09/13 11:29:20;;;;;;;0.73;0.50;;;23.50;76.40;;;;;;5094744;28;19911;-76
2022/09/13 11:32:20;;;;;;;0.50;0.50;;;23.60;76.20;;;;;;5080082;28;20039;-76
2022/09/13 11:35:20;;;;;;;1.73;0.70;;;23.60;75.80;;;;;;5099822;28;20043;-76
2022/09/13 11:38:10;;;;;;;0.40;0.40;;;23.60;75.60;;;;;;5112448;28;20043;-76
2022/09/13 11:40:57;;;;;;;0.50;0.50;;;23.60;75.80;;;;;;5111106;28;20035;-76
2022/09/13 11:43:46;;;;;;;1.02;0.50;;;23.50;75.90;;;;;;5112849;28;20036;-76
2022/09/13 11:46:24;;;;;;;0.77;0.50;;;23.50;76.20;;;;;;5094689;28;20134;-76
2022/09/13 11:49:21;;;;;;;0.60;0.60;;;23.40;76.80;;;;;;5112966;28;20130;-76
2022/09/13 11:52:01;;;;;;;1.02;0.60;;;23.30;76.10;;;;;;5112241;28;20047;-77
2022/09/13 11:55:00;;;;;;;0.38;0.38;;;23.30;76.30;;;;;;5094365;28;20200;-76
2022/09/13 11:57:32;;;;;;;0.30;0.30;;;23.30;76.40;;;;;;5110905;28;20036;-76
2022/09/13 12:00:07;;;;;;;0.45;0.30;;;23.30;76.30;;;;;;5112539;28;20051;-76
2022/09/13 12:02:42;;;;;;;0.45;0.40;;;23.50;76.00;;;;;;5112564;28;20070;-76
2022/09/13 12:05:21;;;;;;;0.57;0.50;;;23.70;75.50;;;;;;5094503;28;20051;-76
2022/09/13 12:07:54;;;;;;;0.40;0.40;;;23.70;75.10;;;;;;5095282;28;20378;-76
2022/09/13 12:10:27;;;;;;;0.82;0.43;;;23.80;75.00;;;;;;5112485;28;20112;-76
2022/09/13 12:12:55;;;;;;;0.32;0.32;;;23.80;75.00;;;;;;5113167;28;20469;-77
2022/09/13 12:15:36;;;;;;;1.55;0.38;;;23.70;74.90;;;;;;5112344;28;20132;-76
2022/09/13 12:18:11;;;;;;;0.75;0.40;;;23.70;75.00;;;;;;5093444;28;20066;-76
2022/09/13 12:20:42;;;;;;;0.40;0.40;;;23.70;75.00;;;;;;5113082;28;20100;-77
2022/09/13 12:23:15;;;;;;;0.52;0.32;;;23.80;74.90;;;;;;5113999;28;20054;-76
2022/09/13 12:26:04;;;;;;;0.35;0.35;;;23.80;74.60;;;;;;5111497;28;20123;-75
2022/09/13 12:28:39;;;;;;;0.35;0.30;;;24.00;74.30;;;;;;5113614;28;20433;-75
2022/09/13 12:31:11;;;;;;;0.60;0.40;;;24.10;73.90;;;;;;5112948;28;20059;-75
2022/09/13 12:33:40;;;;;;;0.30;0.30;;;24.10;73.80;;;;;;5112623;28;20044;-75
2022/09/13 12:36:32;;;;;;;0.30;0.30;;;24.20;73.70;;;;;;5112474;28;20134;-75
2022/09/13 12:39:38;;;;;;;0.32;0.32;;;24.20;73.70;;;;;;5113993;28;20036;-75
2022/09/13 12:42:29;;;;;;;0.22;0.22;;;24.10;73.60;;;;;;5103310;28;20074;-75
2022/09/13 12:45:09;;;;;;;1.02;0.50;;;24.10;73.80;;;;;;5115481;28;20512;-75
2022/09/13 12:48:05;;;;;;;1.83;0.40;;;24.10;73.70;;;;;;5115021;28;20059;-75
2022/09/13 12:50:45;;;;;;;0.63;0.40;;;24.00;73.50;;;;;;5116091;28;20123;-76
2022/09/13 12:53:35;;;;;;;0.70;0.40;;;24.10;73.40;;;;;;5115432;28;20043;-75
2022/09/13 12:56:36;;;;;;;0.75;0.60;;;24.00;73.20;;;;;;5115282;28;20043;-75
2022/09/13 12:59:23;;;;;;;0.30;0.30;;;24.00;73.20;;;;;;5098737;28;20031;-75
2022/09/13 13:01:51;;;;;;;0.38;0.22;;;24.10;73.20;;;;;;5115468;28;20046;-75
2022/09/13 13:04:25;;;;;;;0.35;0.25;;;24.10;73.10;;;;;;5115688;28;20353;-76
2022/09/13 13:06:58;;;;;;;0.50;0.40;;;24.10;72.90;;;;;;5097625;28;20594;-75
2022/09/13 13:09:41;;;;;;;0.60;0.30;;;24.10;72.90;;;;;;5097535;28;20112;-75
2022/09/13 13:12:29;;;;;;;0.30;0.30;;;24.10;72.80;;;;;;5097879;28;20477;-75
2022/09/13 13:14:55;;;;;;;0.20;0.20;;;24.10;72.80;;;;;;5096607;28;20505;-76
2022/09/13 13:17:37;;;;;;;1.42;0.30;;;24.20;72.50;;;;;;5115446;28;20051;-75
2022/09/13 13:20:42;;;;;;;0.20;0.20;;;24.20;72.30;;;;;;5115509;28;20032;-76
2022/09/13 13:23:26;;;;;;;0.20;0.20;;;24.00;72.50;;;;;;5114244;28;20182;-75